sensor_id;sensor_type;location;lat;lon;timestamp;P1;durP1;ratioP1;P2;durP2;ratioP2
46505;SDS011;32220;49.808;9.968;2022-09-30T00:01:03;3.87;;;3.00;;
46505;SDS011;32220;49.808;9.968;2022-09-30T00:03:30;5.03;;;3.50;;
46505;SDS011;32220;49.808;9.968;2022-09-30T00:05:59;4.47;;;3.40;;
46505;SDS011;32220;49.808;9.968;2022-09-30T00:08:28;4.30;;;3.57;;
46505;SDS011;32220;49.808;9.968;2022-09-30T00:11:00;4.53;;;3.47;;
46505;SDS011;32220;49.808;9.968;2022-09-30T00:13:29;4.10;;;3.40;;
46505;SDS011;32220;49.808;9.968;2022-09-30T00:15:59;4.37;;;3.37;;
46505;SDS011;32220;49.808;9.968;2022-09-30T00:18:27;3.90;;;3.50;;
46505;SDS011;32220;49.808;9.968;2022-09-30T00:20:55;4.27;;;3.40;;
46505;SDS011;32220;49.808;9.968;2022-09-30T00:23:24;4.07;;;3.30;;
46505;SDS011;32220;49.808;9.968;2022-09-30T00:25:56;7.50;;;3.60;;
46505;SDS011;32220;49.808;9.968;2022-09-30T00:28:25;5.03;;;3.93;;
46505;SDS011;32220;49.808;9.968;2022-09-30T00:30:53;3.70;;;3.30;;
46505;SDS011;32220;49.808;9.968;2022-09-30T00:33:22;5.57;;;4.13;;
46505;SDS011;32220;49.808;9.968;2022-09-30T00:35:50;4.60;;;4.00;;
46505;SDS011;32220;49.808;9.968;2022-09-30T00:38:17;3.83;;;3.53;;
46505;SDS011;32220;49.808;9.968;2022-09-30T00:40:45;4.37;;;3.67;;
46505;SDS011;32220;49.808;9.968;2022-09-30T00:43:15;5.43;;;4.50;;
46505;SDS011;32220;49.808;9.968;2022-09-30T00:45:46;4.93;;;3.63;;
46505;SDS011;32220;49.808;9.968;2022-09-30T00:48:18;4.87;;;4.33;;
46505;SDS011;32220;49.808;9.968;2022-09-30T00:50:54;7.83;;;4.37;;
46505;SDS011;32220;49.808;9.968;2022-09-30T00:53:24;5.80;;;5.17;;
46505;SDS011;32220;49.808;9.968;2022-09-30T00:55:56;6.23;;;4.67;;
46505;SDS011;32220;49.808;9.968;2022-09-30T00:58:27;5.63;;;4.10;;
46505;SDS011;32220;49.808;9.968;2022-09-30T01:00:57;5.43;;;4.63;;
46505;SDS011;32220;49.808;9.968;2022-09-30T01:03:28;6.00;;;4.30;;
46505;SDS011;32220;49.808;9.968;2022-09-30T01:05:59;6.40;;;4.20;;
46505;SDS011;32220;49.808;9.968;2022-09-30T01:08:28;5.67;;;4.17;;
46505;SDS011;32220;49.808;9.968;2022-09-30T01:10:58;4.43;;;3.93;;
46505;SDS011;32220;49.808;9.968;2022-09-30T01:13:26;4.63;;;3.80;;
46505;SDS011;32220;49.808;9.968;2022-09-30T01:16:05;4.90;;;3.93;;
46505;SDS011;32220;49.808;9.968;2022-09-30T01:18:48;4.63;;;3.93;;
46505;SDS011;32220;49.808;9.968;2022-09-30T01:21:32;5.20;;;4.20;;
46505;SDS011;32220;49.808;9.968;2022-09-30T01:24:22;4.77;;;3.87;;
46505;SDS011;32220;49.808;9.968;2022-09-30T01:27:09;5.70;;;4.10;;
46505;SDS011;32220;49.808;9.968;2022-09-30T01:30:02;5.50;;;3.93;;
46505;SDS011;32220;49.808;9.968;2022-09-30T01:35:37;5.63;;;4.63;;
46505;SDS011;32220;49.808;9.968;2022-09-30T01:38:14;5.17;;;4.33;;
46505;SDS011;32220;49.808;9.968;2022-09-30T01:40:53;5.10;;;4.20;;
46505;SDS011;32220;49.808;9.968;2022-09-30T01:43:34;4.57;;;3.87;;
46505;SDS011;32220;49.808;9.968;2022-09-30T01:46:12;4.93;;;4.27;;
46505;SDS011;32220;49.808;9.968;2022-09-30T01:48:51;4.43;;;3.97;;
46505;SDS011;32220;49.808;9.968;2022-09-30T01:51:25;5.20;;;3.60;;
46505;SDS011;32220;49.808;9.968;2022-09-30T01:53:59;4.60;;;4.00;;
46505;SDS011;32220;49.808;9.968;2022-09-30T01:56:34;9.37;;;5.60;;
46505;SDS011;32220;49.808;9.968;2022-09-30T01:59:09;4.60;;;4.10;;
46505;SDS011;32220;49.808;9.968;2022-09-30T02:01:41;4.40;;;4.00;;
46505;SDS011;32220;49.808;9.968;2022-09-30T02:04:16;7.77;;;4.87;;
46505;SDS011;32220;49.808;9.968;2022-09-30T02:06:48;4.13;;;3.73;;
46505;SDS011;32220;49.808;9.968;2022-09-30T02:09:19;4.37;;;3.97;;
46505;SDS011;32220;49.808;9.968;2022-09-30T02:11:50;6.47;;;4.10;;
46505;SDS011;32220;49.808;9.968;2022-09-30T02:14:22;3.67;;;3.37;;
46505;SDS011;32220;49.808;9.968;2022-09-30T02:16:56;4.43;;;3.97;;
46505;SDS011;32220;49.808;9.968;2022-09-30T02:19:32;4.13;;;3.57;;
46505;SDS011;32220;49.808;9.968;2022-09-30T02:22:06;4.07;;;3.33;;
46505;SDS011;32220;49.808;9.968;2022-09-30T02:24:38;3.33;;;3.03;;
46505;SDS011;32220;49.808;9.968;2022-09-30T02:27:09;4.53;;;3.50;;
46505;SDS011;32220;49.808;9.968;2022-09-30T02:29:42;4.50;;;3.70;;
46505;SDS011;32220;49.808;9.968;2022-09-30T02:32:16;5.97;;;4.30;;
46505;SDS011;32220;49.808;9.968;2022-09-30T02:34:50;5.03;;;4.23;;
46505;SDS011;32220;49.808;9.968;2022-09-30T02:37:23;5.67;;;4.10;;
46505;SDS011;32220;49.808;9.968;2022-09-30T02:39:55;4.87;;;3.80;;
46505;SDS011;32220;49.808;9.968;2022-09-30T02:42:38;3.73;;;3.40;;
46505;SDS011;32220;49.808;9.968;2022-09-30T02:45:07;3.93;;;3.30;;
46505;SDS011;32220;49.808;9.968;2022-09-30T02:47:42;5.67;;;3.57;;
46505;SDS011;32220;49.808;9.968;2022-09-30T02:50:19;4.67;;;3.37;;
46505;SDS011;32220;49.808;9.968;2022-09-30T02:52:56;4.60;;;3.50;;
46505;SDS011;32220;49.808;9.968;2022-09-30T02:55:36;3.23;;;2.90;;
46505;SDS011;32220;49.808;9.968;2022-09-30T02:58:15;3.07;;;2.70;;
46505;SDS011;32220;49.808;9.968;2022-09-30T03:00:46;3.40;;;3.10;;
46505;SDS011;32220;49.808;9.968;2022-09-30T03:03:14;3.10;;;2.83;;
46505;SDS011;32220;49.808;9.968;2022-09-30T03:05:49;3.23;;;2.93;;
46505;SDS011;32220;49.808;9.968;2022-09-30T03:08:17;3.10;;;2.80;;
46505;SDS011;32220;49.808;9.968;2022-09-30T03:10:45;3.17;;;2.87;;
46505;SDS011;32220;49.808;9.968;2022-09-30T03:13:22;2.60;;;2.33;;
46505;SDS011;32220;49.808;9.968;2022-09-30T03:16:12;2.50;;;2.30;;
46505;SDS011;32220;49.808;9.968;2022-09-30T03:18:56;2.67;;;2.47;;
46505;SDS011;32220;49.808;9.968;2022-09-30T03:21:40;4.67;;;2.67;;
46505;SDS011;32220;49.808;9.968;2022-09-30T03:24:24;2.47;;;2.27;;
46505;SDS011;32220;49.808;9.968;2022-09-30T03:27:04;2.63;;;2.40;;
46505;SDS011;32220;49.808;9.968;2022-09-30T03:29:43;4.33;;;2.10;;
46505;SDS011;32220;49.808;9.968;2022-09-30T03:32:21;2.80;;;2.37;;
46505;SDS011;32220;49.808;9.968;2022-09-30T03:34:58;2.47;;;2.27;;
46505;SDS011;32220;49.808;9.968;2022-09-30T03:37:35;2.10;;;1.90;;
46505;SDS011;32220;49.808;9.968;2022-09-30T03:40:13;2.47;;;2.27;;
46505;SDS011;32220;49.808;9.968;2022-09-30T03:42:51;2.17;;;1.83;;
46505;SDS011;32220;49.808;9.968;2022-09-30T03:45:25;2.93;;;2.63;;
46505;SDS011;32220;49.808;9.968;2022-09-30T03:47:58;3.10;;;2.47;;
46505;SDS011;32220;49.808;9.968;2022-09-30T03:50:30;2.50;;;2.30;;
46505;SDS011;32220;49.808;9.968;2022-09-30T03:53:01;2.23;;;2.03;;
46505;SDS011;32220;49.808;9.968;2022-09-30T03:55:30;2.03;;;1.87;;
46505;SDS011;32220;49.808;9.968;2022-09-30T03:57:58;3.00;;;2.60;;
46505;SDS011;32220;49.808;9.968;2022-09-30T04:00:27;2.53;;;2.33;;
46505;SDS011;32220;49.808;9.968;2022-09-30T04:02:57;4.00;;;2.20;;
46505;SDS011;32220;49.808;9.968;2022-09-30T04:05:25;3.00;;;2.70;;
46505;SDS011;32220;49.808;9.968;2022-09-30T04:07:53;2.90;;;2.43;;
46505;SDS011;32220;49.808;9.968;2022-09-30T04:10:22;2.60;;;2.40;;
46505;SDS011;32220;49.808;9.968;2022-09-30T04:12:51;3.07;;;2.67;;
46505;SDS011;32220;49.808;9.968;2022-09-30T04:15:20;3.07;;;2.07;;
46505;SDS011;32220;49.808;9.968;2022-09-30T04:17:48;3.20;;;2.27;;
46505;SDS011;32220;49.808;9.968;2022-09-30T04:20:15;2.90;;;2.67;;
46505;SDS011;32220;49.808;9.968;2022-09-30T04:22:43;2.27;;;2.07;;
46505;SDS011;32220;49.808;9.968;2022-09-30T04:25:11;2.80;;;2.60;;
46505;SDS011;32220;49.808;9.968;2022-09-30T04:27:41;3.07;;;2.77;;
46505;SDS011;32220;49.808;9.968;2022-09-30T04:30:09;2.50;;;2.27;;
46505;SDS011;32220;49.808;9.968;2022-09-30T04:32:37;2.33;;;2.13;;
46505;SDS011;32220;49.808;9.968;2022-09-30T04:35:10;2.60;;;2.17;;
46505;SDS011;32220;49.808;9.968;2022-09-30T04:37:40;3.77;;;2.27;;
46505;SDS011;32220;49.808;9.968;2022-09-30T04:40:09;2.30;;;1.97;;
46505;SDS011;32220;49.808;9.968;2022-09-30T04:42:38;2.47;;;2.10;;
46505;SDS011;32220;49.808;9.968;2022-09-30T04:45:08;2.17;;;1.97;;
46505;SDS011;32220;49.808;9.968;2022-09-30T04:47:37;2.70;;;2.30;;
46505;SDS011;32220;49.808;9.968;2022-09-30T04:50:05;2.53;;;2.20;;
46505;SDS011;32220;49.808;9.968;2022-09-30T04:52:33;2.47;;;2.20;;
46505;SDS011;32220;49.808;9.968;2022-09-30T04:55:03;2.80;;;2.60;;
46505;SDS011;32220;49.808;9.968;2022-09-30T04:57:31;3.67;;;2.60;;
46505;SDS011;32220;49.808;9.968;2022-09-30T04:59:59;3.67;;;2.60;;
46505;SDS011;32220;49.808;9.968;2022-09-30T05:02:29;3.57;;;2.83;;
46505;SDS011;32220;49.808;9.968;2022-09-30T05:04:58;2.27;;;2.13;;
46505;SDS011;32220;49.808;9.968;2022-09-30T05:07:29;2.03;;;1.93;;
46505;SDS011;32220;49.808;9.968;2022-09-30T05:09:57;2.67;;;2.27;;
46505;SDS011;32220;49.808;9.968;2022-09-30T05:12:25;4.77;;;1.90;;
46505;SDS011;32220;49.808;9.968;2022-09-30T05:14:52;2.30;;;2.10;;
46505;SDS011;32220;49.808;9.968;2022-09-30T05:17:20;2.80;;;2.50;;
46505;SDS011;32220;49.808;9.968;2022-09-30T05:19:50;5.90;;;3.00;;
46505;SDS011;32220;49.808;9.968;2022-09-30T05:22:17;3.90;;;2.57;;
46505;SDS011;32220;49.808;9.968;2022-09-30T05:24:45;2.63;;;2.43;;
46505;SDS011;32220;49.808;9.968;2022-09-30T05:27:13;2.90;;;2.30;;
46505;SDS011;32220;49.808;9.968;2022-09-30T05:29:41;3.33;;;2.40;;
46505;SDS011;32220;49.808;9.968;2022-09-30T05:32:08;2.87;;;2.57;;
46505;SDS011;32220;49.808;9.968;2022-09-30T05:34:36;2.93;;;2.73;;
46505;SDS011;32220;49.808;9.968;2022-09-30T05:37:06;4.40;;;2.90;;
46505;SDS011;32220;49.808;9.968;2022-09-30T05:39:35;3.27;;;2.57;;
46505;SDS011;32220;49.808;9.968;2022-09-30T05:42:03;2.60;;;2.40;;
46505;SDS011;32220;49.808;9.968;2022-09-30T05:44:31;2.93;;;2.70;;
46505;SDS011;32220;49.808;9.968;2022-09-30T05:46:59;3.17;;;2.87;;
46505;SDS011;32220;49.808;9.968;2022-09-30T05:49:27;3.73;;;3.33;;
46505;SDS011;32220;49.808;9.968;2022-09-30T05:51:55;4.60;;;3.90;;
46505;SDS011;32220;49.808;9.968;2022-09-30T05:54:24;5.67;;;4.13;;
46505;SDS011;32220;49.808;9.968;2022-09-30T05:56:52;9.17;;;5.57;;
46505;SDS011;32220;49.808;9.968;2022-09-30T05:59:20;10.80;;;5.10;;
46505;SDS011;32220;49.808;9.968;2022-09-30T06:01:47;8.23;;;4.43;;
46505;SDS011;32220;49.808;9.968;2022-09-30T06:04:15;11.37;;;6.13;;
46505;SDS011;32220;49.808;9.968;2022-09-30T06:06:43;8.63;;;5.33;;
46505;SDS011;32220;49.808;9.968;2022-09-30T06:09:12;5.10;;;3.40;;
46505;SDS011;32220;49.808;9.968;2022-09-30T06:11:41;4.00;;;3.40;;
46505;SDS011;32220;49.808;9.968;2022-09-30T06:14:10;3.10;;;2.80;;
46505;SDS011;32220;49.808;9.968;2022-09-30T06:16:38;3.77;;;2.50;;
46505;SDS011;32220;49.808;9.968;2022-09-30T06:19:06;3.13;;;2.70;;
46505;SDS011;32220;49.808;9.968;2022-09-30T06:21:34;3.50;;;2.13;;
46505;SDS011;32220;49.808;9.968;2022-09-30T06:24:01;4.17;;;2.67;;
46505;SDS011;32220;49.808;9.968;2022-09-30T06:26:29;4.57;;;2.80;;
46505;SDS011;32220;49.808;9.968;2022-09-30T06:28:59;3.20;;;2.90;;
46505;SDS011;32220;49.808;9.968;2022-09-30T06:31:26;4.37;;;3.03;;
46505;SDS011;32220;49.808;9.968;2022-09-30T06:33:55;4.33;;;2.97;;
46505;SDS011;32220;49.808;9.968;2022-09-30T06:36:23;5.23;;;3.60;;
46505;SDS011;32220;49.808;9.968;2022-09-30T06:38:54;6.00;;;3.60;;
46505;SDS011;32220;49.808;9.968;2022-09-30T06:41:21;3.70;;;3.20;;
46505;SDS011;32220;49.808;9.968;2022-09-30T06:43:52;4.43;;;3.13;;
46505;SDS011;32220;49.808;9.968;2022-09-30T06:46:25;4.80;;;3.47;;
46505;SDS011;32220;49.808;9.968;2022-09-30T06:48:53;3.60;;;3.30;;
46505;SDS011;32220;49.808;9.968;2022-09-30T06:51:23;4.00;;;3.60;;
46505;SDS011;32220;49.808;9.968;2022-09-30T06:53:52;9.00;;;3.33;;
46505;SDS011;32220;49.808;9.968;2022-09-30T06:56:21;5.33;;;3.80;;
46505;SDS011;32220;49.808;9.968;2022-09-30T06:58:49;3.60;;;3.30;;
46505;SDS011;32220;49.808;9.968;2022-09-30T07:01:16;7.43;;;3.70;;
46505;SDS011;32220;49.808;9.968;2022-09-30T07:03:47;3.80;;;3.40;;
46505;SDS011;32220;49.808;9.968;2022-09-30T07:06:14;5.07;;;4.00;;
46505;SDS011;32220;49.808;9.968;2022-09-30T07:08:42;4.23;;;3.77;;
46505;SDS011;32220;49.808;9.968;2022-09-30T07:11:11;4.00;;;3.50;;
46505;SDS011;32220;49.808;9.968;2022-09-30T07:13:41;4.27;;;3.83;;
46505;SDS011;32220;49.808;9.968;2022-09-30T07:16:11;4.90;;;4.13;;
46505;SDS011;32220;49.808;9.968;2022-09-30T07:18:39;4.20;;;3.80;;
46505;SDS011;32220;49.808;9.968;2022-09-30T07:21:11;4.77;;;4.37;;
46505;SDS011;32220;49.808;9.968;2022-09-30T07:23:40;4.40;;;4.00;;
46505;SDS011;32220;49.808;9.968;2022-09-30T07:26:12;5.70;;;4.30;;
46505;SDS011;32220;49.808;9.968;2022-09-30T07:28:41;4.27;;;3.70;;
46505;SDS011;32220;49.808;9.968;2022-09-30T07:31:09;4.27;;;3.67;;
46505;SDS011;32220;49.808;9.968;2022-09-30T07:33:40;4.27;;;3.87;;
46505;SDS011;32220;49.808;9.968;2022-09-30T07:36:11;4.33;;;3.93;;
46505;SDS011;32220;49.808;9.968;2022-09-30T07:38:44;4.80;;;4.27;;
46505;SDS011;32220;49.808;9.968;2022-09-30T07:41:16;4.57;;;4.17;;
46505;SDS011;32220;49.808;9.968;2022-09-30T07:43:46;6.67;;;4.17;;
46505;SDS011;32220;49.808;9.968;2022-09-30T07:46:16;4.73;;;4.27;;
46505;SDS011;32220;49.808;9.968;2022-09-30T07:48:46;5.23;;;3.77;;
46505;SDS011;32220;49.808;9.968;2022-09-30T07:51:19;4.27;;;3.87;;
46505;SDS011;32220;49.808;9.968;2022-09-30T07:53:48;3.90;;;3.53;;
46505;SDS011;32220;49.808;9.968;2022-09-30T07:56:22;4.57;;;4.17;;
46505;SDS011;32220;49.808;9.968;2022-09-30T07:58:52;4.90;;;4.50;;
46505;SDS011;32220;49.808;9.968;2022-09-30T08:01:21;5.23;;;4.73;;
46505;SDS011;32220;49.808;9.968;2022-09-30T08:03:51;4.30;;;3.90;;
46505;SDS011;32220;49.808;9.968;2022-09-30T08:06:21;4.67;;;4.17;;
46505;SDS011;32220;49.808;9.968;2022-09-30T08:08:51;6.60;;;4.93;;
46505;SDS011;32220;49.808;9.968;2022-09-30T08:11:20;5.07;;;4.43;;
46505;SDS011;32220;49.808;9.968;2022-09-30T08:13:49;6.13;;;5.33;;
46505;SDS011;32220;49.808;9.968;2022-09-30T08:16:17;5.43;;;4.93;;
46505;SDS011;32220;49.808;9.968;2022-09-30T08:18:45;5.83;;;5.27;;
46505;SDS011;32220;49.808;9.968;2022-09-30T08:21:13;6.47;;;5.17;;
46505;SDS011;32220;49.808;9.968;2022-09-30T08:23:43;5.70;;;5.13;;
46505;SDS011;32220;49.808;9.968;2022-09-30T08:26:12;6.10;;;5.50;;
46505;SDS011;32220;49.808;9.968;2022-09-30T08:28:40;5.80;;;5.30;;
46505;SDS011;32220;49.808;9.968;2022-09-30T08:31:09;5.87;;;5.27;;
46505;SDS011;32220;49.808;9.968;2022-09-30T08:33:38;8.23;;;5.60;;
46505;SDS011;32220;49.808;9.968;2022-09-30T08:36:07;5.73;;;5.13;;
46505;SDS011;32220;49.808;9.968;2022-09-30T08:38:35;6.83;;;5.83;;
46505;SDS011;32220;49.808;9.968;2022-09-30T08:41:10;6.90;;;5.93;;
46505;SDS011;32220;49.808;9.968;2022-09-30T08:43:52;5.90;;;5.40;;
46505;SDS011;32220;49.808;9.968;2022-09-30T08:46:32;6.10;;;5.50;;
46505;SDS011;32220;49.808;9.968;2022-09-30T08:49:12;7.57;;;6.00;;
46505;SDS011;32220;49.808;9.968;2022-09-30T08:52:00;7.70;;;6.90;;
46505;SDS011;32220;49.808;9.968;2022-09-30T08:54:32;7.60;;;6.80;;
46505;SDS011;32220;49.808;9.968;2022-09-30T08:57:02;7.70;;;6.90;;
46505;SDS011;32220;49.808;9.968;2022-09-30T08:59:31;8.90;;;7.83;;
46505;SDS011;32220;49.808;9.968;2022-09-30T09:02:12;9.47;;;8.40;;
46505;SDS011;32220;49.808;9.968;2022-09-30T09:04:45;12.87;;;8.83;;
46505;SDS011;32220;49.808;9.968;2022-09-30T09:07:21;11.07;;;8.53;;
46505;SDS011;32220;49.808;9.968;2022-09-30T09:10:02;13.00;;;9.83;;
46505;SDS011;32220;49.808;9.968;2022-09-30T09:12:45;12.30;;;10.53;;
46505;SDS011;32220;49.808;9.968;2022-09-30T09:15:21;12.03;;;10.30;;
46505;SDS011;32220;49.808;9.968;2022-09-30T09:18:09;11.20;;;9.87;;
46505;SDS011;32220;49.808;9.968;2022-09-30T09:20:49;14.37;;;11.20;;
46505;SDS011;32220;49.808;9.968;2022-09-30T09:23:21;14.00;;;11.00;;
46505;SDS011;32220;49.808;9.968;2022-09-30T09:25:50;14.20;;;11.23;;
46505;SDS011;32220;49.808;9.968;2022-09-30T09:28:26;11.57;;;10.07;;
46505;SDS011;32220;49.808;9.968;2022-09-30T09:31:02;16.93;;;12.40;;
46505;SDS011;32220;49.808;9.968;2022-09-30T09:33:31;14.97;;;12.70;;
46505;SDS011;32220;49.808;9.968;2022-09-30T09:36:09;13.23;;;11.73;;
46505;SDS011;32220;49.808;9.968;2022-09-30T09:38:52;14.73;;;12.23;;
46505;SDS011;32220;49.808;9.968;2022-09-30T09:41:35;14.83;;;11.80;;
46505;SDS011;32220;49.808;9.968;2022-09-30T09:44:13;18.03;;;13.20;;
46505;SDS011;32220;49.808;9.968;2022-09-30T09:46:50;14.83;;;11.63;;
46505;SDS011;32220;49.808;9.968;2022-09-30T09:49:28;15.13;;;13.10;;
46505;SDS011;32220;49.808;9.968;2022-09-30T09:54:53;16.27;;;12.97;;
46505;SDS011;32220;49.808;9.968;2022-09-30T09:57:23;15.87;;;13.53;;
46505;SDS011;32220;49.808;9.968;2022-09-30T10:00:00;16.10;;;13.43;;
46505;SDS011;32220;49.808;9.968;2022-09-30T10:02:44;13.07;;;11.67;;
46505;SDS011;32220;49.808;9.968;2022-09-30T10:05:27;14.43;;;12.83;;
46505;SDS011;32220;49.808;9.968;2022-09-30T10:08:07;12.40;;;10.63;;
46505;SDS011;32220;49.808;9.968;2022-09-30T10:10:42;11.23;;;9.80;;
46505;SDS011;32220;49.808;9.968;2022-09-30T10:13:19;13.07;;;10.00;;
46505;SDS011;32220;49.808;9.968;2022-09-30T10:15:51;10.87;;;9.77;;
46505;SDS011;32220;49.808;9.968;2022-09-30T10:18:22;11.80;;;10.60;;
46505;SDS011;32220;49.808;9.968;2022-09-30T10:20:53;13.97;;;11.13;;
46505;SDS011;32220;49.808;9.968;2022-09-30T10:23:28;12.37;;;11.03;;
46505;SDS011;32220;49.808;9.968;2022-09-30T10:25:58;11.57;;;10.27;;
46505;SDS011;32220;49.808;9.968;2022-09-30T10:28:30;10.50;;;9.50;;
46505;SDS011;32220;49.808;9.968;2022-09-30T10:33:52;11.20;;;10.13;;
46505;SDS011;32220;49.808;9.968;2022-09-30T10:36:28;11.63;;;10.53;;
46505;SDS011;32220;49.808;9.968;2022-09-30T10:39:00;9.60;;;8.43;;
46505;SDS011;32220;49.808;9.968;2022-09-30T10:41:33;9.60;;;8.70;;
46505;SDS011;32220;49.808;9.968;2022-09-30T10:44:04;8.37;;;7.60;;
46505;SDS011;32220;49.808;9.968;2022-09-30T10:46:44;8.53;;;7.80;;
46505;SDS011;32220;49.808;9.968;2022-09-30T10:49:22;8.50;;;7.67;;
46505;SDS011;32220;49.808;9.968;2022-09-30T10:51:52;9.83;;;8.73;;
46505;SDS011;32220;49.808;9.968;2022-09-30T10:54:33;8.13;;;7.43;;
46505;SDS011;32220;49.808;9.968;2022-09-30T10:57:19;8.90;;;8.00;;
46505;SDS011;32220;49.808;9.968;2022-09-30T10:59:48;7.87;;;7.13;;
46505;SDS011;32220;49.808;9.968;2022-09-30T11:02:22;8.97;;;8.17;;
46505;SDS011;32220;49.808;9.968;2022-09-30T11:04:59;8.63;;;7.93;;
46505;SDS011;32220;49.808;9.968;2022-09-30T11:07:36;7.15;;;6.50;;
46505;SDS011;32220;49.808;9.968;2022-09-30T11:10:12;8.07;;;7.38;;
46505;SDS011;32220;49.808;9.968;2022-09-30T11:12:51;7.00;;;6.40;;
46505;SDS011;32220;49.808;9.968;2022-09-30T11:15:24;6.43;;;5.93;;
46505;SDS011;32220;49.808;9.968;2022-09-30T11:17:59;7.05;;;6.45;;
46505;SDS011;32220;49.808;9.968;2022-09-30T11:20:33;6.28;;;5.78;;
46505;SDS011;32220;49.808;9.968;2022-09-30T11:23:08;6.65;;;6.05;;
46505;SDS011;32220;49.808;9.968;2022-09-30T11:25:46;6.80;;;6.20;;
46505;SDS011;32220;49.808;9.968;2022-09-30T11:28:23;6.90;;;6.25;;
46505;SDS011;32220;49.808;9.968;2022-09-30T11:31:01;6.50;;;5.90;;
46505;SDS011;32220;49.808;9.968;2022-09-30T11:33:49;6.50;;;5.90;;
46505;SDS011;32220;49.808;9.968;2022-09-30T11:36:25;4.72;;;4.32;;
46505;SDS011;32220;49.808;9.968;2022-09-30T11:39:03;4.13;;;3.83;;
46505;SDS011;32220;49.808;9.968;2022-09-30T11:41:48;3.92;;;3.55;;
46505;SDS011;32220;49.808;9.968;2022-09-30T11:44:25;2.58;;;2.38;;
46505;SDS011;32220;49.808;9.968;2022-09-30T11:47:04;2.63;;;2.42;;
46505;SDS011;32220;49.808;9.968;2022-09-30T11:49:47;2.63;;;2.42;;
46505;SDS011;32220;49.808;9.968;2022-09-30T11:52:25;2.50;;;2.30;;
46505;SDS011;32220;49.808;9.968;2022-09-30T11:55:05;4.03;;;3.72;;
46505;SDS011;32220;49.808;9.968;2022-09-30T11:57:49;4.45;;;3.20;;
46505;SDS011;32220;49.808;9.968;2022-09-30T12:00:23;3.70;;;3.40;;
46505;SDS011;32220;49.808;9.968;2022-09-30T12:02:52;4.20;;;3.72;;
46505;SDS011;32220;49.808;9.968;2022-09-30T12:05:36;3.45;;;2.53;;
46505;SDS011;32220;49.808;9.968;2022-09-30T12:08:09;3.55;;;2.53;;
46505;SDS011;32220;49.808;9.968;2022-09-30T12:10:42;3.38;;;3.08;;
46505;SDS011;32220;49.808;9.968;2022-09-30T12:13:15;4.80;;;2.95;;
46505;SDS011;32220;49.808;9.968;2022-09-30T12:15:47;3.20;;;2.90;;
46505;SDS011;32220;49.808;9.968;2022-09-30T12:18:18;3.40;;;3.10;;
46505;SDS011;32220;49.808;9.968;2022-09-30T12:20:52;3.40;;;3.10;;
46505;SDS011;32220;49.808;9.968;2022-09-30T12:23:26;4.38;;;2.60;;
46505;SDS011;32220;49.808;9.968;2022-09-30T12:26:00;2.97;;;2.78;;
46505;SDS011;32220;49.808;9.968;2022-09-30T12:28:30;3.30;;;3.00;;
46505;SDS011;32220;49.808;9.968;2022-09-30T12:31:34;2.42;;;2.20;;
46505;SDS011;32220;49.808;9.968;2022-09-30T12:34:24;1.63;;;1.50;;
46505;SDS011;32220;49.808;9.968;2022-09-30T12:37:10;1.97;;;1.40;;
46505;SDS011;32220;49.808;9.968;2022-09-30T12:47:30;1.93;;;1.20;;
46505;SDS011;32220;49.808;9.968;2022-09-30T12:50:03;1.70;;;1.00;;
46505;SDS011;32220;49.808;9.968;2022-09-30T12:52:36;0.90;;;0.90;;
46505;SDS011;32220;49.808;9.968;2022-09-30T12:55:05;1.17;;;1.00;;
46505;SDS011;32220;49.808;9.968;2022-09-30T12:57:41;2.10;;;1.30;;
46505;SDS011;32220;49.808;9.968;2022-09-30T13:00:13;1.70;;;1.27;;
46505;SDS011;32220;49.808;9.968;2022-09-30T13:02:45;1.03;;;0.97;;
46505;SDS011;32220;49.808;9.968;2022-09-30T13:08:23;2.00;;;1.30;;
46505;SDS011;32220;49.808;9.968;2022-09-30T13:11:30;1.20;;;1.10;;
46505;SDS011;32220;49.808;9.968;2022-09-30T13:14:22;1.27;;;1.10;;
46505;SDS011;32220;49.808;9.968;2022-09-30T13:20:01;1.67;;;1.47;;
46505;SDS011;32220;49.808;9.968;2022-09-30T13:22:53;2.10;;;1.90;;
46505;SDS011;32220;49.808;9.968;2022-09-30T13:25:24;4.00;;;1.53;;
46505;SDS011;32220;49.808;9.968;2022-09-30T13:27:53;1.60;;;1.50;;
46505;SDS011;32220;49.808;9.968;2022-09-30T13:33:45;1.73;;;1.40;;
46505;SDS011;32220;49.808;9.968;2022-09-30T13:36:29;1.70;;;1.33;;
46505;SDS011;32220;49.808;9.968;2022-09-30T13:39:05;1.97;;;1.23;;
46505;SDS011;32220;49.808;9.968;2022-09-30T13:41:52;1.30;;;1.20;;
46505;SDS011;32220;49.808;9.968;2022-09-30T13:44:30;1.40;;;1.20;;
46505;SDS011;32220;49.808;9.968;2022-09-30T13:47:05;1.67;;;1.50;;
46505;SDS011;32220;49.808;9.968;2022-09-30T13:49:45;1.47;;;1.37;;
46505;SDS011;32220;49.808;9.968;2022-09-30T13:52:19;1.53;;;1.40;;
46505;SDS011;32220;49.808;9.968;2022-09-30T13:54:51;2.27;;;1.57;;
46505;SDS011;32220;49.808;9.968;2022-09-30T13:57:22;2.33;;;1.40;;
46505;SDS011;32220;49.808;9.968;2022-09-30T13:59:57;1.70;;;1.60;;
46505;SDS011;32220;49.808;9.968;2022-09-30T14:08:45;1.60;;;1.50;;
46505;SDS011;32220;49.808;9.968;2022-09-30T14:11:26;2.97;;;1.63;;
46505;SDS011;32220;49.808;9.968;2022-09-30T14:14:14;2.77;;;1.77;;
46505;SDS011;32220;49.808;9.968;2022-09-30T14:17:15;1.60;;;1.47;;
46505;SDS011;32220;49.808;9.968;2022-09-30T14:20:02;3.17;;;1.30;;
46505;SDS011;32220;49.808;9.968;2022-09-30T14:22:51;3.47;;;1.30;;
46505;SDS011;32220;49.808;9.968;2022-09-30T14:25:19;2.40;;;1.70;;
46505;SDS011;32220;49.808;9.968;2022-09-30T14:27:49;2.93;;;1.63;;
46505;SDS011;32220;49.808;9.968;2022-09-30T14:30:26;1.83;;;1.30;;
46505;SDS011;32220;49.808;9.968;2022-09-30T14:32:56;2.10;;;1.60;;
46505;SDS011;32220;49.808;9.968;2022-09-30T14:35:28;1.83;;;1.37;;
46505;SDS011;32220;49.808;9.968;2022-09-30T14:37:58;1.20;;;1.10;;
46505;SDS011;32220;49.808;9.968;2022-09-30T14:40:28;2.13;;;1.57;;
46505;SDS011;32220;49.808;9.968;2022-09-30T14:42:57;2.40;;;1.50;;
46505;SDS011;32220;49.808;9.968;2022-09-30T14:45:30;1.87;;;1.27;;
46505;SDS011;32220;49.808;9.968;2022-09-30T14:48:00;1.70;;;1.50;;
46505;SDS011;32220;49.808;9.968;2022-09-30T14:50:34;2.03;;;1.80;;
46505;SDS011;32220;49.808;9.968;2022-09-30T14:53:17;2.83;;;1.70;;
46505;SDS011;32220;49.808;9.968;2022-09-30T14:55:50;2.57;;;1.60;;
46505;SDS011;32220;49.808;9.968;2022-09-30T14:58:19;2.50;;;1.27;;
46505;SDS011;32220;49.808;9.968;2022-09-30T15:00:59;3.00;;;1.60;;
46505;SDS011;32220;49.808;9.968;2022-09-30T15:03:29;3.17;;;1.80;;
46505;SDS011;32220;49.808;9.968;2022-09-30T15:06:01;2.27;;;1.40;;
46505;SDS011;32220;49.808;9.968;2022-09-30T15:08:29;2.00;;;1.60;;
46505;SDS011;32220;49.808;9.968;2022-09-30T15:10:57;2.27;;;1.20;;
46505;SDS011;32220;49.808;9.968;2022-09-30T15:13:26;2.53;;;1.30;;
46505;SDS011;32220;49.808;9.968;2022-09-30T15:15:56;2.20;;;1.60;;
46505;SDS011;32220;49.808;9.968;2022-09-30T15:21:12;3.30;;;1.80;;
46505;SDS011;32220;49.808;9.968;2022-09-30T15:23:43;3.03;;;1.47;;
46505;SDS011;32220;49.808;9.968;2022-09-30T15:26:17;2.23;;;1.50;;
46505;SDS011;32220;49.808;9.968;2022-09-30T15:28:45;1.27;;;1.17;;
46505;SDS011;32220;49.808;9.968;2022-09-30T15:31:17;2.10;;;1.60;;
46505;SDS011;32220;49.808;9.968;2022-09-30T15:34:00;2.20;;;1.20;;
46505;SDS011;32220;49.808;9.968;2022-09-30T15:36:30;1.50;;;1.30;;
46505;SDS011;32220;49.808;9.968;2022-09-30T15:38:58;1.20;;;1.10;;
46505;SDS011;32220;49.808;9.968;2022-09-30T15:41:26;2.20;;;1.33;;
46505;SDS011;32220;49.808;9.968;2022-09-30T15:43:54;1.47;;;1.13;;
46505;SDS011;32220;49.808;9.968;2022-09-30T15:46:28;1.90;;;1.20;;
46505;SDS011;32220;49.808;9.968;2022-09-30T15:48:58;1.60;;;1.17;;
46505;SDS011;32220;49.808;9.968;2022-09-30T15:51:33;4.10;;;1.67;;
46505;SDS011;32220;49.808;9.968;2022-09-30T15:56:57;1.27;;;1.00;;
46505;SDS011;32220;49.808;9.968;2022-09-30T16:02:24;2.23;;;1.50;;